ITY968 LIEA-LIPY
Flight info
| Callsign | ITY968 |
|---|---|
| Flight time | 0h 53m |
| Altitude | 18000 |
| Route | MINKA L5 BATOX/N0417F340 DCT TAQ DCT GOTMO/N0335F180 L865 ERLIT |
| Aircraft | A20N/M-SDE2E3FGHIRWXY/LB1 |
Departure
| Time | 2026-05-07 06:47 |
|---|---|
| Airport | Alghero-Fertilia Airport (LIEA) |
Arrival
| Time | 2026-05-07 07:40 |
|---|---|
| Airport | Marche Airport (LIPY) |
| Time | Latitude | Longitude | Altitude | Speed | Heading |
|---|---|---|---|---|---|
| 2026-05-07 06:30 | 40.63080 | 8.29472 | 89 ft | 0 kts | 114° |
| 2026-05-07 06:37 | 40.63086 | 8.29454 | 89 ft | 2 kts | 114° |
| 2026-05-07 06:37 | 40.63093 | 8.29435 | 92 ft | 2 kts | 123° |
| 2026-05-07 06:37 | 40.63103 | 8.29419 | 91 ft | 2 kts | 156° |
| 2026-05-07 06:38 | 40.63118 | 8.29414 | 91 ft | 2 kts | 189° |
| 2026-05-07 06:38 | 40.63126 | 8.29416 | 91 ft | 0 kts | 206° |
| 2026-05-07 06:40 | 40.63123 | 8.29414 | 91 ft | 2 kts | 206° |
| 2026-05-07 06:40 | 40.63085 | 8.29389 | 92 ft | 8 kts | 207° |
| 2026-05-07 06:41 | 40.63026 | 8.29348 | 93 ft | 12 kts | 208° |
| 2026-05-07 06:41 | 40.62967 | 8.29311 | 91 ft | 8 kts | 197° |
| 2026-05-07 06:41 | 40.62903 | 8.29275 | 92 ft | 11 kts | 212° |
| 2026-05-07 06:41 | 40.62857 | 8.29196 | 92 ft | 11 kts | 249° |
| 2026-05-07 06:42 | 40.62819 | 8.29096 | 90 ft | 13 kts | 231° |
| 2026-05-07 06:42 | 40.62734 | 8.29042 | 87 ft | 14 kts | 207° |
| 2026-05-07 06:42 | 40.62650 | 8.28986 | 82 ft | 14 kts | 207° |
| 2026-05-07 06:42 | 40.62571 | 8.28933 | 84 ft | 15 kts | 206° |
| 2026-05-07 06:43 | 40.62477 | 8.28883 | 81 ft | 11 kts | 201° |
| 2026-05-07 06:43 | 40.62391 | 8.28837 | 79 ft | 15 kts | 204° |
| 2026-05-07 06:43 | 40.62283 | 8.28770 | 81 ft | 17 kts | 206° |
| 2026-05-07 06:43 | 40.62192 | 8.28709 | 85 ft | 15 kts | 207° |
| 2026-05-07 06:44 | 40.62093 | 8.28656 | 85 ft | 16 kts | 204° |
| 2026-05-07 06:44 | 40.62013 | 8.28610 | 85 ft | 8 kts | 204° |
| 2026-05-07 06:44 | 40.61956 | 8.28563 | 86 ft | 11 kts | 227° |
| 2026-05-07 06:44 | 40.61930 | 8.28508 | 87 ft | 6 kts | 243° |
| 2026-05-07 06:45 | 40.61951 | 8.28419 | 86 ft | 10 kts | 316° |
| 2026-05-07 06:45 | 40.61996 | 8.28379 | 84 ft | 5 kts | 326° |
| 2026-05-07 06:45 | 40.62018 | 8.28366 | 86 ft | 5 kts | 343° |
| 2026-05-07 06:45 | 40.62035 | 8.28371 | 87 ft | 0 kts | 25° |
| 2026-05-07 06:46 | 40.62075 | 8.28395 | 89 ft | 27 kts | 25° |
| 2026-05-07 06:46 | 40.62495 | 8.28654 | 83 ft | 103 kts | 25° |
| 2026-05-07 06:46 | 40.63302 | 8.29157 | 213 ft | 143 kts | 26° |
| 2026-05-07 06:47 | 40.64154 | 8.29761 | 939 ft | 137 kts | 31° |
| 2026-05-07 06:47 | 40.64938 | 8.30413 | 1750 ft | 132 kts | 31° |
| 2026-05-07 06:47 | 40.65788 | 8.30920 | 2459 ft | 137 kts | 22° |
| 2026-05-07 06:47 | 40.66696 | 8.31358 | 3162 ft | 141 kts | 21° |
| 2026-05-07 06:48 | 40.67650 | 8.31831 | 3818 ft | 158 kts | 21° |
| 2026-05-07 06:48 | 40.68732 | 8.32418 | 4470 ft | 178 kts | 23° |
| 2026-05-07 06:48 | 40.69934 | 8.33116 | 5064 ft | 200 kts | 24° |
| 2026-05-07 06:48 | 40.71290 | 8.33930 | 5613 ft | 227 kts | 24° |
| 2026-05-07 06:49 | 40.72802 | 8.34848 | 6286 ft | 251 kts | 24° |
| 2026-05-07 06:49 | 40.74467 | 8.35858 | 6907 ft | 275 kts | 24° |
| 2026-05-07 06:49 | 40.76221 | 8.36920 | 7789 ft | 284 kts | 23° |
| 2026-05-07 06:49 | 40.78018 | 8.38095 | 8803 ft | 293 kts | 33° |
| 2026-05-07 06:50 | 40.79454 | 8.40048 | 9789 ft | 304 kts | 59° |
| 2026-05-07 06:50 | 40.80313 | 8.42669 | 10546 ft | 320 kts | 70° |
| 2026-05-07 06:50 | 40.81067 | 8.45540 | 11013 ft | 344 kts | 72° |
| 2026-05-07 06:50 | 40.81854 | 8.48626 | 11590 ft | 361 kts | 72° |
| 2026-05-07 06:51 | 40.82673 | 8.51790 | 12540 ft | 365 kts | 71° |
| 2026-05-07 06:51 | 40.83507 | 8.54956 | 13460 ft | 371 kts | 71° |
| 2026-05-07 06:51 | 40.84355 | 8.58199 | 14295 ft | 377 kts | 74° |
| 2026-05-07 06:51 | 40.84831 | 8.61627 | 15077 ft | 382 kts | 88° |
| 2026-05-07 06:52 | 40.84713 | 8.65135 | 15863 ft | 384 kts | 102° |
| 2026-05-07 06:52 | 40.84228 | 8.68648 | 16652 ft | 390 kts | 103° |
| 2026-05-07 06:52 | 40.83737 | 8.72187 | 17439 ft | 396 kts | 103° |
| 2026-05-07 06:52 | 40.83239 | 8.75808 | 18206 ft | 402 kts | 103° |
| 2026-05-07 06:53 | 40.82745 | 8.79416 | 18880 ft | 407 kts | 103° |
| 2026-05-07 06:53 | 40.82360 | 8.83142 | 19545 ft | 414 kts | 94° |
| 2026-05-07 06:53 | 40.82579 | 8.86964 | 20198 ft | 423 kts | 80° |
| 2026-05-07 06:53 | 40.83474 | 8.90692 | 20850 ft | 429 kts | 68° |
| 2026-05-07 06:54 | 40.84623 | 8.94351 | 21508 ft | 434 kts | 68° |
| 2026-05-07 06:54 | 40.85786 | 8.98061 | 22165 ft | 439 kts | 68° |
| 2026-05-07 06:54 | 40.86952 | 9.01808 | 22821 ft | 443 kts | 68° |
| 2026-05-07 06:54 | 40.88126 | 9.05599 | 23466 ft | 448 kts | 68° |
| 2026-05-07 06:55 | 40.89313 | 9.09448 | 24031 ft | 453 kts | 68° |
| 2026-05-07 06:55 | 40.90506 | 9.13323 | 24563 ft | 457 kts | 68° |
| 2026-05-07 06:55 | 40.91694 | 9.17190 | 25054 ft | 462 kts | 68° |
| 2026-05-07 06:55 | 40.92910 | 9.21153 | 25567 ft | 466 kts | 68° |
| 2026-05-07 06:56 | 40.94132 | 9.25142 | 26070 ft | 470 kts | 68° |
| 2026-05-07 06:56 | 40.95368 | 9.29182 | 26550 ft | 475 kts | 68° |
| 2026-05-07 06:56 | 40.96611 | 9.33247 | 27040 ft | 479 kts | 68° |
| 2026-05-07 06:56 | 40.97865 | 9.37354 | 27512 ft | 483 kts | 68° |
| 2026-05-07 06:57 | 40.99128 | 9.41495 | 27964 ft | 486 kts | 68° |
| 2026-05-07 06:57 | 41.00397 | 9.45665 | 28406 ft | 490 kts | 68° |
| 2026-05-07 06:57 | 41.01676 | 9.49873 | 28802 ft | 494 kts | 68° |
| 2026-05-07 06:57 | 41.02953 | 9.54079 | 29239 ft | 497 kts | 68° |
| 2026-05-07 06:58 | 41.04246 | 9.58348 | 29631 ft | 501 kts | 68° |
| 2026-05-07 06:58 | 41.05550 | 9.62660 | 30037 ft | 504 kts | 68° |
| 2026-05-07 06:58 | 41.06856 | 9.66986 | 30384 ft | 508 kts | 68° |
| 2026-05-07 06:58 | 41.08174 | 9.71357 | 30730 ft | 511 kts | 68° |
| 2026-05-07 06:59 | 41.09496 | 9.75751 | 31094 ft | 513 kts | 68° |
| 2026-05-07 06:59 | 41.10791 | 9.80073 | 31507 ft | 514 kts | 68° |
| 2026-05-07 06:59 | 41.12096 | 9.84491 | 31965 ft | 514 kts | 68° |
| 2026-05-07 06:59 | 41.13392 | 9.88901 | 32428 ft | 514 kts | 68° |
| 2026-05-07 07:00 | 41.14695 | 9.93342 | 32885 ft | 513 kts | 68° |
| 2026-05-07 07:00 | 41.15990 | 9.97757 | 33337 ft | 513 kts | 68° |
| 2026-05-07 07:00 | 41.17286 | 10.02180 | 33782 ft | 513 kts | 68° |
| 2026-05-07 07:00 | 41.18574 | 10.06538 | 33981 ft | 511 kts | 68° |
| 2026-05-07 07:01 | 41.21534 | 10.15065 | 34004 ft | 507 kts | 57° |
| 2026-05-07 07:01 | 41.25759 | 10.22497 | 34004 ft | 503 kts | 46° |
| 2026-05-07 07:02 | 41.30339 | 10.29521 | 34006 ft | 502 kts | 46° |
| 2026-05-07 07:02 | 41.34874 | 10.36520 | 34003 ft | 502 kts | 46° |
| 2026-05-07 07:03 | 41.39458 | 10.43605 | 34004 ft | 502 kts | 46° |
| 2026-05-07 07:03 | 41.43985 | 10.50614 | 34008 ft | 502 kts | 47° |
| 2026-05-07 07:04 | 41.48530 | 10.57664 | 34013 ft | 501 kts | 47° |
| 2026-05-07 07:04 | 41.53075 | 10.64732 | 34004 ft | 501 kts | 47° |
| 2026-05-07 07:05 | 41.57612 | 10.71805 | 34005 ft | 501 kts | 47° |
| 2026-05-07 07:05 | 41.62115 | 10.78841 | 34009 ft | 500 kts | 47° |
| 2026-05-07 07:06 | 41.66628 | 10.85910 | 34006 ft | 499 kts | 47° |
| 2026-05-07 07:06 | 41.71141 | 10.92996 | 34006 ft | 499 kts | 48° |
| 2026-05-07 07:07 | 41.75636 | 11.00071 | 34007 ft | 498 kts | 48° |
| 2026-05-07 07:07 | 41.80105 | 11.07121 | 34005 ft | 498 kts | 48° |
| 2026-05-07 07:08 | 41.84587 | 11.14208 | 34000 ft | 497 kts | 48° |
| 2026-05-07 07:08 | 41.89061 | 11.21300 | 34002 ft | 497 kts | 48° |
| 2026-05-07 07:09 | 41.93526 | 11.28395 | 33995 ft | 497 kts | 48° |
| 2026-05-07 07:09 | 41.97966 | 11.35465 | 33995 ft | 496 kts | 48° |
| 2026-05-07 07:10 | 42.02420 | 11.42575 | 33996 ft | 496 kts | 49° |
| 2026-05-07 07:10 | 42.06836 | 11.49643 | 33996 ft | 496 kts | 49° |
| 2026-05-07 07:11 | 42.11286 | 11.56781 | 33993 ft | 496 kts | 49° |
| 2026-05-07 07:11 | 42.15728 | 11.63923 | 33995 ft | 496 kts | 49° |
| 2026-05-07 07:12 | 42.20137 | 11.71027 | 33994 ft | 497 kts | 49° |
| 2026-05-07 07:12 | 42.25130 | 11.77448 | 34000 ft | 495 kts | 38° |
| 2026-05-07 07:13 | 42.30365 | 11.83510 | 34009 ft | 495 kts | 39° |
| 2026-05-07 07:13 | 42.35565 | 11.89561 | 34017 ft | 496 kts | 39° |
| 2026-05-07 07:14 | 42.40775 | 11.95637 | 33655 ft | 492 kts | 39° |
| 2026-05-07 07:14 | 42.43370 | 11.98668 | 32965 ft | 492 kts | 39° |
| 2026-05-07 07:14 | 42.45968 | 12.01705 | 32128 ft | 493 kts | 39° |
| 2026-05-07 07:15 | 42.48576 | 12.04757 | 31249 ft | 496 kts | 39° |
| 2026-05-07 07:15 | 42.51197 | 12.07827 | 30388 ft | 498 kts | 39° |
| 2026-05-07 07:15 | 42.53784 | 12.10862 | 29644 ft | 495 kts | 39° |
| 2026-05-07 07:15 | 42.56369 | 12.13900 | 28981 ft | 490 kts | 39° |
| 2026-05-07 07:16 | 42.58936 | 12.16919 | 28345 ft | 484 kts | 39° |
| 2026-05-07 07:16 | 42.61468 | 12.19901 | 27683 ft | 479 kts | 39° |
| 2026-05-07 07:16 | 42.63958 | 12.22836 | 27039 ft | 475 kts | 39° |
| 2026-05-07 07:16 | 42.66451 | 12.25777 | 26423 ft | 470 kts | 39° |
| 2026-05-07 07:17 | 42.68909 | 12.28680 | 25824 ft | 466 kts | 39° |
| 2026-05-07 07:17 | 42.71314 | 12.31524 | 25233 ft | 462 kts | 39° |
| 2026-05-07 07:17 | 42.73730 | 12.34383 | 24630 ft | 458 kts | 39° |
| 2026-05-07 07:17 | 42.76134 | 12.37233 | 24077 ft | 454 kts | 39° |
| 2026-05-07 07:18 | 42.78504 | 12.40044 | 23512 ft | 450 kts | 39° |
| 2026-05-07 07:18 | 42.80854 | 12.42833 | 22870 ft | 446 kts | 39° |
| 2026-05-07 07:18 | 42.83174 | 12.45589 | 22289 ft | 440 kts | 39° |
| 2026-05-07 07:18 | 42.85477 | 12.48328 | 21703 ft | 436 kts | 40° |
| 2026-05-07 07:19 | 42.87726 | 12.51005 | 21111 ft | 432 kts | 40° |
| 2026-05-07 07:19 | 42.89983 | 12.53696 | 20497 ft | 428 kts | 40° |
| 2026-05-07 07:19 | 42.92214 | 12.56357 | 19973 ft | 423 kts | 40° |
| 2026-05-07 07:19 | 42.94397 | 12.58965 | 19747 ft | 410 kts | 40° |
| 2026-05-07 07:20 | 42.96508 | 12.61490 | 19607 ft | 395 kts | 40° |
| 2026-05-07 07:20 | 42.98549 | 12.63933 | 19225 ft | 389 kts | 41° |
| 2026-05-07 07:20 | 43.00599 | 12.66387 | 18527 ft | 394 kts | 41° |
| 2026-05-07 07:20 | 43.02696 | 12.68900 | 18146 ft | 410 kts | 41° |
| 2026-05-07 07:21 | 43.04850 | 12.71488 | 17982 ft | 411 kts | 41° |
| 2026-05-07 07:21 | 43.06960 | 12.74023 | 17749 ft | 406 kts | 41° |
| 2026-05-07 07:21 | 43.09077 | 12.76570 | 17264 ft | 402 kts | 41° |
| 2026-05-07 07:21 | 43.11172 | 12.79094 | 16701 ft | 399 kts | 40° |
| 2026-05-07 07:22 | 43.13249 | 12.81597 | 16172 ft | 394 kts | 40° |
| 2026-05-07 07:22 | 43.15302 | 12.84076 | 15609 ft | 391 kts | 40° |
| 2026-05-07 07:22 | 43.17306 | 12.86498 | 15134 ft | 386 kts | 40° |
| 2026-05-07 07:22 | 43.19304 | 12.88913 | 14688 ft | 383 kts | 40° |
| 2026-05-07 07:23 | 43.21254 | 12.91410 | 14324 ft | 379 kts | 45° |
| 2026-05-07 07:23 | 43.23018 | 12.94055 | 13974 ft | 371 kts | 46° |
| 2026-05-07 07:23 | 43.24751 | 12.96634 | 13587 ft | 364 kts | 45° |
| 2026-05-07 07:23 | 43.26458 | 12.99159 | 13143 ft | 358 kts | 45° |
| 2026-05-07 07:24 | 43.28133 | 13.01640 | 12684 ft | 354 kts | 46° |
| 2026-05-07 07:24 | 43.29773 | 13.04074 | 12236 ft | 350 kts | 46° |
| 2026-05-07 07:24 | 43.31424 | 13.06511 | 11772 ft | 347 kts | 45° |
| 2026-05-07 07:24 | 43.33066 | 13.08922 | 11323 ft | 343 kts | 45° |
| 2026-05-07 07:25 | 43.36282 | 13.13647 | 10437 ft | 331 kts | 46° |
| 2026-05-07 07:25 | 43.37834 | 13.15933 | 9999 ft | 323 kts | 46° |
| 2026-05-07 07:25 | 43.39218 | 13.17975 | 9580 ft | 317 kts | 46° |
| 2026-05-07 07:26 | 43.40702 | 13.20183 | 9109 ft | 310 kts | 46° |
| 2026-05-07 07:26 | 43.42125 | 13.22312 | 8654 ft | 301 kts | 46° |
| 2026-05-07 07:26 | 43.43521 | 13.24402 | 8245 ft | 292 kts | 46° |
| 2026-05-07 07:26 | 43.44868 | 13.26418 | 7838 ft | 283 kts | 46° |
| 2026-05-07 07:27 | 43.46192 | 13.28400 | 7442 ft | 276 kts | 46° |
| 2026-05-07 07:27 | 43.47476 | 13.30324 | 7053 ft | 270 kts | 47° |
| 2026-05-07 07:27 | 43.48725 | 13.32194 | 6662 ft | 264 kts | 47° |
| 2026-05-07 07:27 | 43.49957 | 13.34040 | 6261 ft | 259 kts | 47° |
| 2026-05-07 07:28 | 43.51167 | 13.35856 | 5853 ft | 255 kts | 47° |
| 2026-05-07 07:28 | 43.52348 | 13.37629 | 5447 ft | 254 kts | 47° |
| 2026-05-07 07:28 | 43.53552 | 13.39438 | 5129 ft | 255 kts | 46° |
| 2026-05-07 07:28 | 43.54732 | 13.41213 | 5011 ft | 246 kts | 46° |
| 2026-05-07 07:29 | 43.55856 | 13.42905 | 5004 ft | 232 kts | 46° |
| 2026-05-07 07:29 | 43.56920 | 13.44507 | 5001 ft | 225 kts | 46° |
| 2026-05-07 07:29 | 43.57989 | 13.46098 | 4998 ft | 224 kts | 42° |
| 2026-05-07 07:29 | 43.59309 | 13.47087 | 5003 ft | 220 kts | 8° |
| 2026-05-07 07:30 | 43.60836 | 13.47183 | 4957 ft | 219 kts | 357° |
| 2026-05-07 07:30 | 43.62351 | 13.47159 | 4829 ft | 217 kts | 356° |
| 2026-05-07 07:30 | 43.63864 | 13.47129 | 4703 ft | 217 kts | 356° |
| 2026-05-07 07:30 | 43.65379 | 13.47110 | 4571 ft | 216 kts | 357° |
| 2026-05-07 07:31 | 43.66882 | 13.47102 | 4424 ft | 217 kts | 357° |
| 2026-05-07 07:31 | 43.68405 | 13.47099 | 4104 ft | 220 kts | 358° |
| 2026-05-07 07:31 | 43.69937 | 13.47099 | 3755 ft | 225 kts | 357° |
| 2026-05-07 07:31 | 43.71515 | 13.47101 | 3410 ft | 228 kts | 357° |
| 2026-05-07 07:32 | 43.73112 | 13.47103 | 3060 ft | 231 kts | 357° |
| 2026-05-07 07:32 | 43.74202 | 13.47104 | 2819 ft | 233 kts | 357° |
| 2026-05-07 07:32 | 43.75807 | 13.47105 | 2560 ft | 231 kts | 357° |
| 2026-05-07 07:32 | 43.77385 | 13.47108 | 2497 ft | 221 kts | 357° |
| 2026-05-07 07:33 | 43.78884 | 13.47114 | 2500 ft | 209 kts | 357° |
| 2026-05-07 07:33 | 43.80340 | 13.47113 | 2505 ft | 214 kts | 357° |
| 2026-05-07 07:33 | 43.81795 | 13.47442 | 2502 ft | 214 kts | 24° |
| 2026-05-07 07:33 | 43.82885 | 13.48805 | 2502 ft | 218 kts | 60° |
| 2026-05-07 07:34 | 43.83250 | 13.50815 | 2500 ft | 218 kts | 96° |
| 2026-05-07 07:34 | 43.82746 | 13.52726 | 2500 ft | 213 kts | 131° |
| 2026-05-07 07:34 | 43.81617 | 13.54030 | 2500 ft | 211 kts | 152° |
| 2026-05-07 07:34 | 43.80285 | 13.54845 | 2504 ft | 208 kts | 168° |
| 2026-05-07 07:35 | 43.78868 | 13.55081 | 2499 ft | 204 kts | 185° |
| 2026-05-07 07:35 | 43.77468 | 13.54810 | 2507 ft | 204 kts | 196° |
| 2026-05-07 07:35 | 43.76124 | 13.54295 | 2499 ft | 201 kts | 200° |
| 2026-05-07 07:35 | 43.74818 | 13.53630 | 2504 ft | 200 kts | 209° |
| 2026-05-07 07:36 | 43.73665 | 13.52601 | 2494 ft | 191 kts | 221° |
| 2026-05-07 07:36 | 43.72709 | 13.51427 | 2494 ft | 176 kts | 225° |
| 2026-05-07 07:36 | 43.71823 | 13.50229 | 2503 ft | 179 kts | 226° |
| 2026-05-07 07:36 | 43.70998 | 13.49102 | 2435 ft | 155 kts | 226° |
| 2026-05-07 07:37 | 43.70276 | 13.48111 | 2226 ft | 137 kts | 226° |
| 2026-05-07 07:37 | 43.69630 | 13.47223 | 2044 ft | 124 kts | 226° |
| 2026-05-07 07:37 | 43.69016 | 13.46377 | 1876 ft | 126 kts | 226° |
| 2026-05-07 07:37 | 43.68398 | 13.45529 | 1711 ft | 123 kts | 226° |
| 2026-05-07 07:38 | 43.67794 | 13.44698 | 1539 ft | 125 kts | 226° |
| 2026-05-07 07:38 | 43.67179 | 13.43853 | 1375 ft | 123 kts | 226° |
| 2026-05-07 07:38 | 43.66572 | 13.43018 | 1204 ft | 123 kts | 225° |
| 2026-05-07 07:38 | 43.65963 | 13.42181 | 1041 ft | 123 kts | 225° |
| 2026-05-07 07:39 | 43.65361 | 13.41349 | 857 ft | 125 kts | 224° |
| 2026-05-07 07:39 | 43.64752 | 13.40500 | 685 ft | 124 kts | 225° |
| 2026-05-07 07:39 | 43.64146 | 13.39650 | 559 ft | 123 kts | 225° |
| 2026-05-07 07:39 | 43.63529 | 13.38823 | 411 ft | 125 kts | 221° |
| 2026-05-07 07:40 | 43.62909 | 13.37989 | 239 ft | 124 kts | 226° |
| 2026-05-07 07:40 | 43.62294 | 13.37155 | 71 ft | 123 kts | 226° |
| 2026-05-07 07:40 | 43.61763 | 13.36418 | 58 ft | 83 kts | 226° |
| 2026-05-07 07:40 | 43.61489 | 13.36034 | 55 ft | 39 kts | 227° |
| 2026-05-07 07:41 | 43.61321 | 13.35803 | 54 ft | 26 kts | 225° |
| 2026-05-07 07:41 | 43.61211 | 13.35649 | 55 ft | 18 kts | 226° |
| 2026-05-07 07:41 | 43.61125 | 13.35570 | 54 ft | 14 kts | 197° |
| 2026-05-07 07:41 | 43.61059 | 13.35556 | 54 ft | 9 kts | 179° |
| 2026-05-07 07:42 | 43.60981 | 13.35557 | 53 ft | 14 kts | 180° |
| 2026-05-07 07:42 | 43.60917 | 13.35556 | 56 ft | 7 kts | 182° |
| 2026-05-07 07:42 | 43.60905 | 13.35551 | 56 ft | 3 kts | 206° |
| 2026-05-07 07:42 | 43.60881 | 13.35522 | 54 ft | 6 kts | 223° |
| 2026-05-07 07:43 | 43.60859 | 13.35493 | 53 ft | 5 kts | 223° |
| 2026-05-07 07:43 | 43.60838 | 13.35476 | 53 ft | 4 kts | 190° |
| 2026-05-07 07:43 | 43.60817 | 13.35484 | 49 ft | 2 kts | 149° |
| 2026-05-07 07:43 | 43.60801 | 13.35497 | 54 ft | 2 kts | 156° |
| 2026-05-07 07:44 | 43.60794 | 13.35499 | 54 ft | 1 kts | 167° |
| 2026-05-07 07:44 | 43.60785 | 13.35502 | 54 ft | 2 kts | 167° |
| 2026-05-07 07:44 | 43.60777 | 13.35504 | 55 ft | 0 kts | 167° |